createdAt,value
2019-06-20T00:00:12.379Z,100678.11
2019-06-20T00:02:41.391Z,100678.25
2019-06-20T00:05:10.740Z,100669.73
2019-06-20T00:07:40.057Z,100671.30
2019-06-20T00:10:09.083Z,100671.66
2019-06-20T00:12:38.430Z,100676.44
2019-06-20T00:15:07.466Z,100678.97
2019-06-20T00:17:36.508Z,100669.59
2019-06-20T00:20:05.632Z,100671.97
2019-06-20T00:22:35.015Z,100676.48
2019-06-20T00:25:04.339Z,100677.20
2019-06-20T00:27:33.425Z,100675.80
2019-06-20T00:30:02.827Z,100685.16
2019-06-20T00:32:32.212Z,100693.68
2019-06-20T00:35:01.226Z,100687.84
2019-06-20T00:37:30.513Z,100689.11
2019-06-20T00:39:59.541Z,100686.03
2019-06-20T00:42:28.564Z,100685.40
2019-06-20T00:44:58.906Z,100687.59
2019-06-20T00:47:27.965Z,100686.64
2019-06-20T00:49:56.960Z,100684.62
2019-06-20T00:52:26.309Z,100686.09
2019-06-20T00:54:55.353Z,100686.83
2019-06-20T00:57:24.403Z,100688.00
2019-06-20T00:59:53.456Z,100686.19
2019-06-20T01:02:22.567Z,100683.75
2019-06-20T01:04:51.870Z,100675.52
2019-06-20T01:07:21.277Z,100680.16
2019-06-20T01:09:50.607Z,100672.77
2019-06-20T01:12:20.165Z,100675.50
2019-06-20T01:14:49.165Z,100673.02
2019-06-20T01:17:18.214Z,100673.76
2019-06-20T01:19:47.251Z,100669.28
2019-06-20T01:22:16.297Z,100666.31
2019-06-20T01:24:45.612Z,100675.71
2019-06-20T01:27:14.641Z,100673.30
2019-06-20T01:29:43.962Z,100670.59
2019-06-20T01:32:12.979Z,100687.00
2019-06-20T01:34:42.008Z,100687.68
2019-06-20T01:37:11.361Z,100691.28
2019-06-20T01:39:41.151Z,100682.34
2019-06-20T01:42:10.558Z,100677.75
2019-06-20T01:44:39.582Z,100676.39
2019-06-20T01:47:08.982Z,100675.30
2019-06-20T01:49:38.018Z,100679.31
2019-06-20T01:52:07.401Z,100673.74
2019-06-20T01:54:36.441Z,100675.80
2019-06-20T01:57:05.460Z,100663.55
2019-06-20T01:59:34.510Z,100666.80
2019-06-20T02:02:03.776Z,100672.73
2019-06-20T02:04:32.801Z,100672.14
2019-06-20T02:07:01.787Z,100669.97
2019-06-20T02:09:30.836Z,100667.11
2019-06-20T02:12:00.146Z,100677.93
2019-06-20T02:14:29.678Z,100670.47
2019-06-20T02:16:58.724Z,100663.59
2019-06-20T02:19:27.750Z,100666.17
2019-06-20T02:21:57.030Z,100669.62
2019-06-20T02:24:26.410Z,100673.67
2019-06-20T02:26:55.450Z,100678.55
2019-06-20T02:29:24.796Z,100683.22
2019-06-20T02:31:53.832Z,100679.38
2019-06-20T02:34:22.862Z,100676.59
2019-06-20T02:36:54.038Z,100672.94
2019-06-20T02:39:23.027Z,100670.23
2019-06-20T02:41:52.080Z,100672.32
2019-06-20T02:44:30.036Z,100671.86
2019-06-20T02:46:53.455Z,100666.59
2019-06-20T02:49:22.770Z,100669.41
2019-06-20T02:51:53.706Z,100674.08
2019-06-20T02:54:22.778Z,100673.06
2019-06-20T02:56:52.056Z,100674.94
2019-06-20T02:59:21.063Z,100679.00
2019-06-20T03:01:50.072Z,100678.59
2019-06-20T03:04:19.159Z,100675.43
2019-06-20T03:06:48.489Z,100676.00
2019-06-20T03:09:17.918Z,100678.75
2019-06-20T03:11:46.956Z,100681.19
2019-06-20T03:14:15.993Z,100688.62
2019-06-20T03:16:46.089Z,100680.59
2019-06-20T03:19:15.091Z,100681.41
2019-06-20T03:21:44.121Z,100686.41
2019-06-20T03:24:13.146Z,100694.25
2019-06-20T03:26:42.205Z,100696.25
2019-06-20T03:29:11.496Z,100694.86
2019-06-20T03:31:40.926Z,100697.56
2019-06-20T03:34:09.947Z,100697.97
2019-06-20T03:36:39.311Z,100706.00
2019-06-20T03:39:08.380Z,100709.69
2019-06-20T03:41:37.809Z,100715.95
2019-06-20T03:44:07.183Z,100716.91
2019-06-20T03:46:36.874Z,100710.95
2019-06-20T03:49:06.283Z,100711.49
2019-06-20T03:51:35.679Z,100709.94
2019-06-20T03:54:04.708Z,100704.31
2019-06-20T03:56:33.717Z,100708.33
2019-06-20T03:59:03.128Z,100708.78
2019-06-20T04:01:32.113Z,100718.05
2019-06-20T04:04:04.162Z,100715.88
2019-06-20T04:06:33.582Z,100714.35
2019-06-20T04:09:02.620Z,100719.97
2019-06-20T04:11:32.022Z,100724.73
2019-06-20T04:14:01.453Z,100726.50
2019-06-20T04:16:30.460Z,100723.05
2019-06-20T04:18:59.511Z,100710.59
2019-06-20T04:21:28.543Z,100715.56
2019-06-20T04:23:57.952Z,100718.05
2019-06-20T04:26:27.605Z,100725.55
2019-06-20T04:28:57.071Z,100726.20
2019-06-20T04:31:26.432Z,100739.72
2019-06-20T04:33:55.742Z,100736.20
2019-06-20T04:36:25.181Z,100735.43
2019-06-20T04:38:54.170Z,100731.53
2019-06-20T04:41:23.185Z,100738.08
2019-06-20T04:43:52.206Z,100743.09
2019-06-20T04:46:43.391Z,100745.27
2019-06-20T04:49:12.811Z,100753.42
2019-06-20T04:51:42.046Z,100739.86
2019-06-20T04:54:11.683Z,100743.75
2019-06-20T04:56:40.725Z,100749.03
2019-06-20T04:59:09.821Z,100757.56
2019-06-20T05:01:39.196Z,100753.80
2019-06-20T05:04:08.285Z,100751.70
2019-06-20T05:06:37.651Z,100745.30
2019-06-20T05:09:07.822Z,100757.36
2019-06-20T05:11:36.901Z,100754.12
2019-06-20T05:14:05.924Z,100752.23
2019-06-20T05:16:36.538Z,100756.91
2019-06-20T05:19:05.618Z,100761.01
2019-06-20T05:21:34.635Z,100758.79
2019-06-20T05:24:03.836Z,100760.63
2019-06-20T05:26:33.267Z,100768.47
2019-06-20T05:29:05.404Z,100756.36
2019-06-20T05:31:33.188Z,100762.44
2019-06-20T05:34:02.259Z,100768.47
2019-06-20T05:36:31.279Z,100760.02
2019-06-20T05:39:00.431Z,100756.70
2019-06-20T05:41:29.995Z,100757.09
2019-06-20T05:43:59.117Z,100751.14
2019-06-20T05:46:28.541Z,100752.84
2019-06-20T05:48:57.693Z,100756.07
2019-06-20T05:51:26.743Z,100759.20
2019-06-20T05:53:55.757Z,100760.11
2019-06-20T05:56:26.029Z,100763.14
2019-06-20T05:58:55.189Z,100758.98
2019-06-20T06:01:26.420Z,100770.98
2019-06-20T06:03:56.303Z,100778.80
2019-06-20T06:06:26.287Z,100774.27
2019-06-20T06:08:56.269Z,100759.49
2019-06-20T06:11:25.336Z,100769.30
2019-06-20T06:13:54.433Z,100773.69
2019-06-20T06:16:27.483Z,100773.84
2019-06-20T06:18:55.059Z,100776.20
2019-06-20T06:21:24.286Z,100777.42
2019-06-20T06:23:53.319Z,100783.02
2019-06-20T06:26:23.025Z,100782.39
2019-06-20T06:28:52.080Z,100788.89
2019-06-20T06:31:21.217Z,100788.18
2019-06-20T06:33:50.581Z,100787.37
2019-06-20T06:36:19.599Z,100791.68
2019-06-20T06:38:49.018Z,100781.78
2019-06-20T06:41:18.122Z,100777.71
2019-06-20T06:43:47.467Z,100779.75
2019-06-20T06:46:16.466Z,100775.55
2019-06-20T06:48:45.528Z,100783.67
2019-06-20T06:51:14.513Z,100788.86
2019-06-20T06:53:43.597Z,100792.61
2019-06-20T06:56:12.630Z,100782.25
2019-06-20T06:58:41.706Z,100785.61
2019-06-20T07:01:10.692Z,100786.88
2019-06-20T07:03:39.689Z,100782.88
2019-06-20T07:06:08.725Z,100786.55
2019-06-20T07:08:37.756Z,100786.50
2019-06-20T07:11:06.885Z,100791.81
2019-06-20T07:13:36.243Z,100788.30
2019-06-20T07:16:05.798Z,100793.22
2019-06-20T07:18:34.845Z,100791.31
2019-06-20T07:21:03.912Z,100798.95
2019-06-20T07:23:32.991Z,100803.83
2019-06-20T07:26:02.034Z,100807.52
2019-06-20T07:28:31.057Z,100802.92
2019-06-20T07:31:00.421Z,100795.98
2019-06-20T07:33:29.799Z,100805.48
2019-06-20T07:35:59.183Z,100806.22
2019-06-20T07:38:28.243Z,100810.47
2019-06-20T07:40:57.247Z,100813.78
2019-06-20T07:43:26.283Z,100808.96
2019-06-20T07:46:02.753Z,100817.84
2019-06-20T07:48:26.496Z,100820.13
2019-06-20T07:50:55.851Z,100824.66
2019-06-20T07:53:24.857Z,100820.00
2019-06-20T07:55:53.873Z,100820.77
2019-06-20T07:58:23.271Z,100821.52
2019-06-20T08:00:52.626Z,100826.12
2019-06-20T08:03:21.683Z,100824.54
2019-06-20T08:05:51.490Z,100826.87
2019-06-20T08:08:20.496Z,100828.00
2019-06-20T08:10:49.878Z,100834.02
2019-06-20T08:13:19.211Z,100845.66
2019-06-20T08:15:48.625Z,100842.33
2019-06-20T08:18:17.631Z,100843.39
2019-06-20T08:20:46.675Z,100850.48
2019-06-20T08:23:15.675Z,100849.63
2019-06-20T08:25:44.950Z,100850.33
2019-06-20T08:28:13.970Z,100850.94
2019-06-20T08:30:43.009Z,100854.50
2019-06-20T08:33:12.440Z,100844.57
2019-06-20T08:35:41.553Z,100860.15
2019-06-20T08:38:10.685Z,100856.55
2019-06-20T08:40:42.450Z,100858.75
2019-06-20T08:43:11.606Z,100862.33
2019-06-20T08:45:41.284Z,100863.59
2019-06-20T08:48:10.338Z,100857.94
2019-06-20T08:50:39.728Z,100864.45
2019-06-20T08:53:09.139Z,100865.81
2019-06-20T08:55:38.197Z,100870.44
2019-06-20T08:58:07.253Z,100865.15
2019-06-20T09:00:38.505Z,100868.47
2019-06-20T09:03:07.835Z,100873.78
2019-06-20T09:05:37.643Z,100876.92
2019-06-20T09:08:11.153Z,100878.69
2019-06-20T09:10:39.584Z,100872.50
2019-06-20T09:13:09.712Z,100878.49
2019-06-20T09:15:38.722Z,100873.69
2019-06-20T09:18:08.982Z,100873.36
2019-06-20T09:20:39.395Z,100880.70
2019-06-20T09:23:08.771Z,100877.52
2019-06-20T09:25:38.122Z,100881.05
2019-06-20T09:28:07.313Z,100880.45
2019-06-20T09:30:36.726Z,100874.88
2019-06-20T09:33:06.367Z,100877.19
2019-06-20T09:35:35.405Z,100872.38
2019-06-20T09:38:05.030Z,100876.52
2019-06-20T09:40:34.085Z,100878.53
2019-06-20T09:43:03.123Z,100871.37
2019-06-20T09:45:32.483Z,100870.64
2019-06-20T09:48:02.666Z,100882.10
2019-06-20T09:50:31.927Z,100870.09
2019-06-20T09:53:01.215Z,100879.89
2019-06-20T09:55:31.019Z,100885.30
2019-06-20T09:58:02.150Z,100875.59
2019-06-20T10:00:31.744Z,100890.83
2019-06-20T10:03:00.762Z,100887.07
2019-06-20T10:05:29.846Z,100891.27
2019-06-20T10:07:58.884Z,100893.30
2019-06-20T10:10:31.177Z,100891.69
2019-06-20T10:13:00.424Z,100891.67
2019-06-20T10:15:30.380Z,100898.13
2019-06-20T10:17:59.636Z,100898.39
2019-06-20T10:20:30.070Z,100906.88
2019-06-20T10:22:59.442Z,100906.02
2019-06-20T10:25:28.908Z,100909.42
2019-06-20T10:27:58.289Z,100917.05
2019-06-20T10:30:29.025Z,100917.47
2019-06-20T10:32:58.682Z,100913.89
2019-06-20T10:35:27.706Z,100919.19
2019-06-20T10:37:57.404Z,100923.17
2019-06-20T10:40:28.335Z,100918.73
2019-06-20T10:42:57.349Z,100925.81
2019-06-20T10:45:28.144Z,100920.32
2019-06-20T10:47:57.516Z,100924.30
2019-06-20T10:50:27.407Z,100914.71
2019-06-20T10:52:56.451Z,100921.66
2019-06-20T10:55:25.522Z,100928.27
2019-06-20T10:57:54.577Z,100932.33
2019-06-20T11:00:31.291Z,100935.80
2019-06-20T11:02:55.408Z,100932.27
2019-06-20T11:05:25.126Z,100933.55
2019-06-20T11:07:54.141Z,100933.95
2019-06-20T11:10:23.578Z,100935.86
2019-06-20T11:12:55.958Z,100937.51
2019-06-20T11:15:24.607Z,100942.92
2019-06-20T11:17:56.356Z,100934.69
2019-06-20T11:20:24.437Z,100943.90
2019-06-20T11:22:53.481Z,100943.28
2019-06-20T11:25:22.715Z,100942.36
2019-06-20T11:27:52.098Z,100948.18
2019-06-20T11:30:21.459Z,100951.85
2019-06-20T11:32:50.726Z,100944.36
2019-06-20T11:35:20.072Z,100952.70
2019-06-20T11:37:49.417Z,100954.33
2019-06-20T11:40:18.573Z,100953.20
2019-06-20T11:42:47.606Z,100968.30
2019-06-20T11:45:17.104Z,100965.82
2019-06-20T11:47:47.388Z,100963.36
2019-06-20T11:50:16.910Z,100969.86
2019-06-20T11:52:46.101Z,100965.30
2019-06-20T11:55:15.457Z,100966.58
2019-06-20T11:57:44.642Z,100961.00
2019-06-20T12:00:14.490Z,100964.27
2019-06-20T12:02:44.362Z,100965.55
2019-06-20T12:05:15.341Z,100966.29
2019-06-20T13:32:22.934Z,101014.52
2019-06-20T13:34:51.985Z,101014.89
2019-06-20T13:37:24.073Z,101020.12
2019-06-20T13:39:53.156Z,101016.91
2019-06-20T13:42:22.241Z,101025.30
2019-06-20T13:44:51.304Z,101024.86
2019-06-20T13:47:20.650Z,101029.53
2019-06-20T13:49:50.196Z,101022.28
2019-06-20T13:52:19.276Z,101030.17
2019-06-20T13:54:49.931Z,101024.10
2019-06-20T13:57:19.333Z,101027.59
2019-06-20T13:59:51.439Z,101028.69
2019-06-20T14:02:19.137Z,101030.92
2019-06-20T14:04:48.364Z,101040.85
2019-06-20T14:07:17.772Z,101033.91
2019-06-20T14:09:46.785Z,101043.02
2019-06-20T14:12:15.800Z,101041.17
2019-06-20T14:14:45.813Z,101042.43
2019-06-20T14:17:14.900Z,101045.36
2019-06-20T14:19:45.166Z,101039.16
2019-06-20T14:22:15.937Z,101045.54
2019-06-20T14:24:45.324Z,101043.48
2019-06-20T14:27:14.326Z,101041.49
2019-06-20T14:29:44.931Z,101047.60
2019-06-20T14:32:22.087Z,101048.67
2019-06-20T14:34:45.414Z,101051.96
2019-06-20T14:37:14.500Z,101053.70
2019-06-20T14:39:44.846Z,101052.09
2019-06-20T14:42:14.653Z,101063.45
2019-06-20T14:44:44.643Z,101053.55
2019-06-20T14:47:15.809Z,101059.12
2019-06-20T14:49:44.975Z,101059.22
2019-06-20T14:52:14.001Z,101060.59
2019-06-20T14:54:44.506Z,101062.59
2019-06-20T14:57:14.438Z,101058.02
2019-06-20T14:59:44.993Z,101059.94
2019-06-20T15:02:15.359Z,101060.59
2019-06-20T15:04:44.950Z,101060.02
2019-06-20T15:07:15.406Z,101051.16
2019-06-20T15:09:46.279Z,101066.85
2019-06-20T15:12:15.588Z,101065.67
2019-06-20T15:14:46.235Z,101075.67
2019-06-20T15:17:15.954Z,101067.25
2019-06-20T15:19:46.138Z,101066.34
2019-06-20T15:22:15.721Z,101074.08
2019-06-20T15:24:46.705Z,101057.48
2019-06-20T15:27:15.443Z,101062.67
2019-06-20T15:29:47.043Z,101069.75
2019-06-20T15:32:15.554Z,101065.23
2019-06-20T15:34:47.566Z,101062.09
2019-06-20T15:37:15.893Z,101069.88
2019-06-20T15:39:44.929Z,101074.70
2019-06-20T15:42:13.955Z,101069.23
2019-06-20T15:44:42.980Z,101060.72
2019-06-20T15:47:12.268Z,101079.63
2019-06-20T15:49:41.314Z,101076.52
2019-06-20T15:52:10.960Z,101066.39
2019-06-20T15:54:39.997Z,101072.89
2019-06-20T15:57:09.670Z,101077.92
2019-06-20T15:59:42.009Z,101086.51
2019-06-20T16:02:09.380Z,101078.61
2019-06-20T16:04:39.109Z,101093.72
2019-06-20T16:07:08.135Z,101082.37
2019-06-20T16:09:37.870Z,101094.23
2019-06-20T16:12:06.886Z,101086.33
2019-06-20T16:14:35.996Z,101090.08
2019-06-20T16:17:05.044Z,101092.89
2019-06-20T16:19:34.401Z,101093.78
2019-06-20T16:22:03.411Z,101099.62
2019-06-20T16:24:32.752Z,101106.02
2019-06-20T16:27:01.755Z,101087.79
2019-06-20T16:29:30.776Z,101101.91
2019-06-20T16:31:59.806Z,101110.94
2019-06-20T16:34:28.845Z,101098.66
2019-06-20T16:37:09.710Z,101104.64
2019-06-20T16:39:28.614Z,101104.33
2019-06-20T16:41:58.292Z,101104.75
2019-06-20T16:44:27.611Z,101109.52
2019-06-20T16:46:56.642Z,101115.14
2019-06-20T16:49:25.655Z,101114.39
2019-06-20T16:51:55.291Z,101110.30
2019-06-20T16:54:24.303Z,101107.60
2019-06-20T16:56:53.324Z,101109.86
2019-06-20T16:59:22.343Z,101112.88
2019-06-20T17:01:52.600Z,101114.83
2019-06-20T17:04:21.792Z,101114.14
2019-06-20T17:06:50.784Z,101120.17
2019-06-20T17:09:19.861Z,101120.11
2019-06-20T17:11:48.882Z,101123.41
2019-06-20T17:14:17.923Z,101120.28
2019-06-20T17:16:47.227Z,101126.27
2019-06-20T17:19:16.243Z,101122.30
2019-06-20T17:21:45.569Z,101141.08
2019-06-20T17:24:14.557Z,101129.02
2019-06-20T17:26:43.590Z,101134.39
2019-06-20T17:29:12.600Z,101138.70
2019-06-20T17:31:41.604Z,101133.43
2019-06-20T17:34:10.615Z,101142.70
2019-06-20T17:36:39.649Z,101145.75
2019-06-20T17:39:09.121Z,101147.30
2019-06-20T17:41:38.439Z,101146.10
2019-06-20T17:44:09.141Z,101154.58
2019-06-20T17:46:38.269Z,101154.20
2019-06-20T17:49:07.402Z,101149.39
2019-06-20T17:51:36.733Z,101147.36
2019-06-20T17:54:06.283Z,101147.77
2019-06-20T17:56:35.642Z,101143.77
2019-06-20T17:59:05.018Z,101153.77
2019-06-20T18:01:36.086Z,101155.72
2019-06-20T18:04:13.773Z,101155.48
2019-06-20T18:06:36.815Z,101165.94
2019-06-20T18:09:07.212Z,101157.31
2019-06-20T18:11:36.366Z,101157.20
2019-06-20T18:14:06.034Z,101162.80
2019-06-20T18:16:35.123Z,101163.56
2019-06-20T18:19:04.165Z,101167.79
2019-06-20T18:21:33.222Z,101166.22
2019-06-20T18:24:02.198Z,101169.88
2019-06-20T18:26:31.954Z,101166.92
2019-06-20T18:29:01.076Z,101168.13
2019-06-20T18:31:30.176Z,101167.25
2019-06-20T18:33:59.880Z,101168.00
2019-06-20T18:36:29.255Z,101170.34
2019-06-20T18:39:01.367Z,101173.71
2019-06-20T18:41:30.429Z,101180.52
2019-06-20T18:44:02.453Z,101176.27
2019-06-20T18:46:31.486Z,101182.04
2019-06-20T18:49:01.176Z,101184.59
2019-06-20T18:51:30.212Z,101180.05
2019-06-20T18:53:59.244Z,101185.16
2019-06-20T18:56:28.631Z,101192.69
2019-06-20T18:58:59.029Z,101189.85
2019-06-20T19:01:28.426Z,101190.27
2019-06-20T19:03:57.515Z,101196.75
2019-06-20T19:06:35.903Z,101197.50
2019-06-20T19:08:59.209Z,101194.80
2019-06-20T19:11:28.501Z,101196.31
2019-06-20T19:13:58.254Z,101206.86
2019-06-20T19:16:27.660Z,101207.25
2019-06-20T19:18:56.727Z,101207.15
2019-06-20T19:21:25.864Z,101207.30
2019-06-20T19:23:55.565Z,101212.89
2019-06-20T19:26:25.248Z,101211.80
2019-06-20T19:28:54.264Z,101222.47
2019-06-20T19:31:23.301Z,101220.16
2019-06-20T19:33:52.720Z,101221.30
2019-06-20T19:36:21.911Z,101216.82
2019-06-20T19:38:51.174Z,101215.06
2019-06-20T19:41:20.791Z,101218.19
2019-06-20T19:43:50.326Z,101223.19
2019-06-20T19:46:19.476Z,101232.00
2019-06-20T19:48:48.503Z,101231.59
2019-06-20T19:51:17.685Z,101231.70
2019-06-20T19:53:46.721Z,101227.00
2019-06-20T19:56:15.871Z,101234.92
2019-06-20T19:58:44.893Z,101235.33
2019-06-20T20:01:14.062Z,101246.70
2019-06-20T20:03:43.189Z,101248.50
2019-06-20T20:06:12.530Z,101247.72
2019-06-20T20:08:41.592Z,101256.27
2019-06-20T20:11:10.949Z,101251.36
2019-06-20T20:13:40.244Z,101256.38
2019-06-20T20:16:09.265Z,101259.09
2019-06-20T20:18:38.778Z,101265.30
2019-06-20T20:21:07.819Z,101262.50
2019-06-20T20:23:37.550Z,101265.56
2019-06-20T20:26:08.858Z,101273.08
2019-06-20T20:28:37.496Z,101273.77
2019-06-20T20:31:06.493Z,101273.64
2019-06-20T20:33:35.673Z,101278.47
2019-06-20T20:36:04.766Z,101275.36
2019-06-20T20:38:33.832Z,101275.09
2019-06-20T20:41:02.893Z,101275.92
2019-06-20T20:43:32.020Z,101275.59
2019-06-20T20:46:01.030Z,101282.58
2019-06-20T20:48:30.134Z,101280.99
2019-06-20T20:50:59.165Z,101277.07
2019-06-20T20:53:28.538Z,101276.45
2019-06-20T20:55:57.560Z,101279.83
2019-06-20T20:58:26.709Z,101281.70
2019-06-20T21:01:11.501Z,101291.13
2019-06-20T21:03:40.902Z,101286.44
2019-06-20T21:06:10.583Z,101282.22
2019-06-20T21:08:39.853Z,101286.94
2019-06-20T21:11:09.182Z,101281.06
2019-06-20T21:13:38.718Z,101288.29
2019-06-20T21:16:07.914Z,101285.33
2019-06-20T21:18:37.324Z,101292.28
2019-06-20T21:21:06.371Z,101296.66
2019-06-20T21:23:35.762Z,101300.28
2019-06-20T21:26:05.396Z,101291.19
2019-06-20T21:28:35.538Z,101288.37
2019-06-20T21:31:04.968Z,101287.95
2019-06-20T21:33:33.993Z,101290.57
2019-06-20T21:36:08.298Z,101293.35
2019-06-20T21:38:34.168Z,101294.96
2019-06-20T21:41:03.438Z,101298.13
2019-06-20T21:43:32.492Z,101296.52
2019-06-20T21:46:02.018Z,101297.67
2019-06-20T21:48:31.158Z,101307.56
2019-06-20T21:51:00.808Z,101301.65
2019-06-20T21:53:30.243Z,101309.19
2019-06-20T21:55:59.338Z,101305.36
2019-06-20T21:58:28.334Z,101305.74
2019-06-20T22:00:59.026Z,101304.22
2019-06-20T22:03:28.067Z,101313.30
2019-06-20T22:05:57.041Z,101317.12
2019-06-20T22:08:26.344Z,101312.63
2019-06-20T22:10:56.398Z,101313.45
2019-06-20T22:13:25.457Z,101310.67
2019-06-20T22:15:54.798Z,101318.16
2019-06-20T22:18:23.824Z,101318.16
2019-06-20T22:20:52.874Z,101316.31
2019-06-20T22:23:22.276Z,101319.80
2019-06-20T22:25:51.338Z,101310.94
2019-06-20T22:28:20.481Z,101313.31
2019-06-20T22:30:52.669Z,101316.96
2019-06-20T22:33:21.762Z,101326.76
2019-06-20T22:35:50.836Z,101317.42
2019-06-20T22:38:20.202Z,101322.08
2019-06-20T22:40:49.605Z,101324.03
2019-06-20T22:43:18.778Z,101330.09
2019-06-20T22:45:47.878Z,101331.46
2019-06-20T22:48:16.902Z,101331.28
2019-06-20T22:50:46.332Z,101331.64
2019-06-20T22:53:15.391Z,101339.09
2019-06-20T22:55:45.301Z,101337.80
2019-06-20T22:58:14.363Z,101337.33
2019-06-20T23:00:44.202Z,101338.44
2019-06-20T23:03:13.914Z,101340.36
2019-06-20T23:05:42.945Z,101339.61
2019-06-20T23:08:12.018Z,101335.77
2019-06-20T23:10:41.398Z,101328.44
2019-06-20T23:13:10.474Z,101334.28
2019-06-20T23:15:40.107Z,101334.75
2019-06-20T23:18:09.540Z,101333.42
2019-06-20T23:20:38.652Z,101333.23
2019-06-20T23:23:07.998Z,101343.72
2019-06-20T23:25:38.679Z,101346.25
2019-06-20T23:28:07.686Z,101344.31
2019-06-20T23:30:36.994Z,101345.43
2019-06-20T23:33:06.055Z,101347.02
2019-06-20T23:35:35.758Z,101342.39
2019-06-20T23:38:05.337Z,101359.14
2019-06-20T23:40:34.651Z,101357.10
2019-06-20T23:43:03.676Z,101360.17
2019-06-20T23:45:32.850Z,101349.09
2019-06-20T23:48:01.932Z,101352.03
2019-06-20T23:50:31.384Z,101351.92
2019-06-20T23:53:09.468Z,101347.41
2019-06-20T23:55:38.547Z,101348.01
2019-06-20T23:58:07.814Z,101348.83
